Terminal Aerodrome Forecast
Issued by NWS

Home | Current Version | Previous Version | Text Only | Print | Product List | Glossary On
Versions: 1 2 3 4 5 6 7 8 9 10 11 12 13
000
FTUS44 KEPZ 021700
TAFLRU
TAF
KLRU 021721Z 0218/0318 26006KT P6SM SKC
     FM030600 28004KT P6SM SKC
     FM031200 13005KT P6SM SKC=

USA.gov is the U.S. government's official web portal to all federal, state and local government web resources and services.